Recent forum postings ...
Today
Change wake turbulence after filing FP
Yesterday
KLM-VA site "not responding", is my flight toast?
3 days ago
Fly KLM Mon CTL
2021-04-09
SCHEDULE FLIGHT BOEING 737
2021-04-08
Law and rules in KLM VA
2021-04-04
Flying a Tour.


 
Aircraft IdentFlightrulesType of Flight
KLM279IS
NumberType of AircraftWake turbulenceEquipmentTransponder Type
1B738MSS
Departure AerodromeDeparture Time
EHRD1106
Cruising speedFlight level
M410F180
Route
SOME1B ABNED L980 XAMAN



Destination AerodromeTotal EETAlternative Aerodrome
EGLC0100EGLL
Other information
DOF/210408 RMK/KLMVA RMK/NLSKILLLEG04

Explanation of the IVAO flightplan

Rotterdam (EHRD), Netherlands

METAR
EHRD 081025Z AUTO 22013KT 180V250 9999 ////// 07/M00 Q1023 NOSIG

WINDSW at 15 mph
VISIBILITY16 miles
CONDITIONS

London City (EGLC), United Kingdom

METAR
EGLC 081050Z 24012KT 9999 BKN033 09/M01 Q1022

WINDWSW at 14 mph
VISIBILITY16 miles
CONDITIONS
CLOUDSmostly cloudy
TEMP48°F (9°C)
WIND CHILL42°F (6°C)
DEWPT30°F (-1°C)
HUMIDITY50%
BAROMETER1022 hPa (30.18 in Hg)

Registration TimeGroundspeedAltitudeTransponderHeadingLongitudeLatitudeOn ground
10:42 08-04-20210 kts-6 ft20001474.4345851.9513Yes
10:450 kts-6 ft20001474.4345851.9513Yes
10:4822 kts-6 ft6270584.445151.9571Yes
10:51205 kts2524 ft62702724.3957451.9468No
10:54264 kts17560 ft62702674.0969351.9414No
10:57446 kts22799 ft62702663.5777651.8908No
11:00367 kts18290 ft62702673.0268451.8434No
11:03368 kts18294 ft62702672.5351951.8041No
11:06366 kts18288 ft62702672.0653951.766No
11:09312 kts12683 ft62702671.6115451.7308No
11:12244 kts7872 ft12702561.2452551.7079No
11:15226 kts4583 ft10002530.95817951.6453No
11:18162 kts1958 ft10002520.6885251.5927No
11:21165 kts1993 ft10002510.47134751.5497No
11:24159 kts1982 ft10002510.26816451.5086No
11:27125 kts437 ft10002700.08466351.5042No
11:300 kts27 ft10002940.04586951.5044Yes
11:330 kts27 ft10002940.04586951.5044Yes
11:360 kts27 ft10002940.04586951.5044Yes